American Integrity — WDD2875 — position and weather

sailwx.info

Track history (hours):
 
Tides and Currents Weather Stations Pressure Air Temp Water Temp Dewpoint Dewpoint Depression Visibility Wind Speed Wind Dir Waves Ship Positions

American Integrity

Owner: American Steamship Company, Williamsville, NY. More information available from US FCC via Universal Licensing System and Coast Guard Vessel Documentation Center.

Last reported at 2015-Jan-06 02:33 UTC. Time now 2015-Mar-28 14:27 UTC.
Position N 46°27' W 084°32'.
Warning: this ship's position is months out of date.

; draft 8 m.

Type: Cargo ship. MMSI: 367120990.

Date/timePositionNaut miles runAvg speedWind from/ knotsBaromVisibWave heightAir tempDewpointWater temp
2015-Jan-06 02:33N 46°27' W 084°32'29 2.2
2015-Jan-05 13:23N 46°08' W 084°01'8 9.3
2015-Jan-05 12:34N 46°02' W 083°54'10 9.8
2015-Jan-05 11:34N 45°54' W 084°01'1212.1
2015-Jan-05 10:34N 45°51' W 084°18'1313.0
2015-Jan-05 09:34N 45°51' W 084°36'1312.8
2015-Jan-05 08:33N 45°50' W 084°55'1413.5
2015-Jan-05 07:33N 45°52' W 085°14'1413.8
2015-Jan-05 06:34N 45°54' W 085°34'1414.1
2015-Jan-05 05:34N 45°52' W 085°54'1313.1
2015-Jan-05 04:33N 45°47' W 086°11'1010.2
2015-Jan-05 03:33N 45°39' W 086°20'10 9.8
2015-Jan-05 02:33N 45°31' W 086°28'10 9.6
2015-Jan-05 01:33N 45°23' W 086°35'  
2015-Jan-02 09:33N 45°17' W 086°23'1212.1
2015-Jan-02 08:33N 45°28' W 086°15'1212.0
2015-Jan-02 07:33N 45°39' W 086°08'9 9.1
2015-Jan-02 06:33N 45°44' W 085°58'10 9.7
2015-Jan-02 05:34N 45°49' W 085°46'10 9.7
2015-Jan-02 04:33N 45°54' W 085°34'7 7.0
2015-Jan-02 03:33N 45°53' W 085°24'6 5.9
2015-Jan-02 02:33N 45°52' W 085°15'6 6.5
2015-Jan-02 01:33N 45°52' W 085°06'8 8.3
2015-Jan-02 00:33N 45°50' W 084°54'1110.6
2015-Jan-01 23:33N 45°47' W 084°40'1 0.7
2015-Jan-01 22:33N 45°46' W 084°40'0 0.1
2015-Jan-01 21:33N 45°46' W 084°39'0 0.0
2015-Jan-01 20:33N 45°46' W 084°39'0 0.0
2015-Jan-01 19:33N 45°46' W 084°39'0 0.0
2015-Jan-01 18:33N 45°46' W 084°39'6 5.8
2015-Jan-01 17:33N 45°52' W 084°40'3 2.9
2015-Jan-01 16:33N 45°55' W 084°41'0 0.0
2015-Jan-01 15:33N 45°55' W 084°41'0 0.0
2015-Jan-01 14:33N 45°55' W 084°41'0 0.0
2015-Jan-01 13:33N 45°55' W 084°41'0 0.0
2015-Jan-01 12:33N 45°55' W 084°41'0 0.0
2015-Jan-01 11:33N 45°55' W 084°41'0 0.0
2015-Jan-01 10:33N 45°55' W 084°41'0 0.0
2015-Jan-01 09:33N 45°55' W 084°41'0 0.0
2015-Jan-01 08:33N 45°55' W 084°41'0 0.0
2015-Jan-01 07:33N 45°55' W 084°41'0 0.0
2015-Jan-01 06:33N 45°55' W 084°41'0 0.0
2015-Jan-01 05:33N 45°55' W 084°41'2 2.4
2015-Jan-01 04:33N 45°54' W 084°38'7 7.2
2015-Jan-01 03:33N 45°52' W 084°28'6 6.2
2015-Jan-01 02:33N 45°53' W 084°19'6 6.3
2015-Jan-01 01:33N 45°54' W 084°10'5 5.4
2015-Jan-01 00:33N 45°55' W 084°02'3 3.1
2014-Dec-31 23:33N 45°56' W 083°58'12 6.0
2014-Dec-31 21:29N 46°08' W 084°01'9 7.8
2014-Dec-31 20:21N 46°14' W 084°10'  
2014-Dec-27 19:33N 45°55' W 083°57'1312.8
2014-Dec-27 18:33N 45°51' W 084°14'1313.0
2014-Dec-27 17:33N 45°51' W 084°33'1212.1
2014-Dec-27 16:33N 45°49' W 084°50'1212.3
2014-Dec-27 15:33N 45°49' W 085°08'1211.6
2014-Dec-27 14:33N 45°39' W 085°16'1312.9
2014-Dec-27 13:33N 45°29' W 085°27'1313.0
2014-Dec-27 12:33N 45°18' W 085°38'1313.0
2014-Dec-27 11:33N 45°08' W 085°49'1312.6
2014-Dec-27 10:33N 44°59' W 086°01'  
Track history (hours):
 
Tides and Currents Weather Stations Pressure Air Temp Water Temp Dewpoint Dewpoint Depression Visibility Wind Speed Wind Dir Waves Ship Positions

American Integrity

Owner: American Steamship Company, Williamsville, NY. More information available from US FCC via Universal Licensing System and Coast Guard Vessel Documentation Center.

Last reported at 2015-Jan-06 02:33 UTC. Time now 2015-Mar-28 14:27 UTC.
Position N 46°27' W 084°32'.
Warning: this ship's position is months out of date.

; draft 8 m.

Type: Cargo ship. MMSI: 367120990.

Date/timePositionNaut miles runAvg speedWind from/ knotsBaromVisibWave heightAir tempDewpointWater temp
2015-Jan-06 02:33N 46°27' W 084°32'29 2.2
2015-Jan-05 13:23N 46°08' W 084°01'8 9.3
2015-Jan-05 12:34N 46°02' W 083°54'10 9.8
2015-Jan-05 11:34N 45°54' W 084°01'1212.1
2015-Jan-05 10:34N 45°51' W 084°18'1313.0
2015-Jan-05 09:34N 45°51' W 084°36'1312.8
2015-Jan-05 08:33N 45°50' W 084°55'1413.5
2015-Jan-05 07:33N 45°52' W 085°14'1413.8
2015-Jan-05 06:34N 45°54' W 085°34'1414.1
2015-Jan-05 05:34N 45°52' W 085°54'1313.1
2015-Jan-05 04:33N 45°47' W 086°11'1010.2
2015-Jan-05 03:33N 45°39' W 086°20'10 9.8
2015-Jan-05 02:33N 45°31' W 086°28'10 9.6
2015-Jan-05 01:33N 45°23' W 086°35'  
2015-Jan-02 09:33N 45°17' W 086°23'1212.1
2015-Jan-02 08:33N 45°28' W 086°15'1212.0
2015-Jan-02 07:33N 45°39' W 086°08'9 9.1
2015-Jan-02 06:33N 45°44' W 085°58'10 9.7
2015-Jan-02 05:34N 45°49' W 085°46'10 9.7
2015-Jan-02 04:33N 45°54' W 085°34'7 7.0
2015-Jan-02 03:33N 45°53' W 085°24'6 5.9
2015-Jan-02 02:33N 45°52' W 085°15'6 6.5
2015-Jan-02 01:33N 45°52' W 085°06'8 8.3
2015-Jan-02 00:33N 45°50' W 084°54'1110.6
2015-Jan-01 23:33N 45°47' W 084°40'1 0.7
2015-Jan-01 22:33N 45°46' W 084°40'0 0.1
2015-Jan-01 21:33N 45°46' W 084°39'0 0.0
2015-Jan-01 20:33N 45°46' W 084°39'0 0.0
2015-Jan-01 19:33N 45°46' W 084°39'0 0.0
2015-Jan-01 18:33N 45°46' W 084°39'6 5.8
2015-Jan-01 17:33N 45°52' W 084°40'3 2.9
2015-Jan-01 16:33N 45°55' W 084°41'0 0.0
2015-Jan-01 15:33N 45°55' W 084°41'0 0.0
2015-Jan-01 14:33N 45°55' W 084°41'0 0.0
2015-Jan-01 13:33N 45°55' W 084°41'0 0.0
2015-Jan-01 12:33N 45°55' W 084°41'0 0.0
2015-Jan-01 11:33N 45°55' W 084°41'0 0.0
2015-Jan-01 10:33N 45°55' W 084°41'0 0.0
2015-Jan-01 09:33N 45°55' W 084°41'0 0.0
2015-Jan-01 08:33N 45°55' W 084°41'0 0.0
2015-Jan-01 07:33N 45°55' W 084°41'0 0.0
2015-Jan-01 06:33N 45°55' W 084°41'0 0.0
2015-Jan-01 05:33N 45°55' W 084°41'2 2.4
2015-Jan-01 04:33N 45°54' W 084°38'7 7.2
2015-Jan-01 03:33N 45°52' W 084°28'6 6.2
2015-Jan-01 02:33N 45°53' W 084°19'6 6.3
2015-Jan-01 01:33N 45°54' W 084°10'5 5.4
2015-Jan-01 00:33N 45°55' W 084°02'3 3.1
2014-Dec-31 23:33N 45°56' W 083°58'12 6.0
2014-Dec-31 21:29N 46°08' W 084°01'9 7.8
2014-Dec-31 20:21N 46°14' W 084°10'  
2014-Dec-27 19:33N 45°55' W 083°57'1312.8
2014-Dec-27 18:33N 45°51' W 084°14'1313.0
2014-Dec-27 17:33N 45°51' W 084°33'1212.1
2014-Dec-27 16:33N 45°49' W 084°50'1212.3
2014-Dec-27 15:33N 45°49' W 085°08'1211.6
2014-Dec-27 14:33N 45°39' W 085°16'1312.9
2014-Dec-27 13:33N 45°29' W 085°27'1313.0
2014-Dec-27 12:33N 45°18' W 085°38'1313.0
2014-Dec-27 11:33N 45°08' W 085°49'1312.6
2014-Dec-27 10:33N 44°59' W 086°01'  

Dump ship's entire track history